ADDS METAR Data INFO
IDs: Format: Raw Decoded Include TAF

Data at: 0025 UTC 11 Dec 2017

PHKO 102353Z 23008KT 10SM FEW045 SCT060 26/18 A2993 RMK AO2 SLP135 T02610178 10272 20222 58024
PHKO 102253Z 21007KT 10SM CLR 26/18 A2995 RMK AO2 SLP143 T02610178
PHKO 102153Z 19010KT 10SM FEW055 27/18 A2998 RMK AO2 SLP153 T02670178
PHKO 102053Z 18009KT 10SM FEW060 27/17 A3000 RMK AO2 SLP160 T02670172 51002
PHKO 101953Z 20008KT 10SM FEW065 26/16 A3000 RMK AO2 SLP159 T02610161
PHKO 101853Z 13004KT 10SM CLR 25/16 A3000 RMK AO2 SLP158 T02500156
PHKO 101753Z 11004KT 10SM CLR 22/14 A2999 RMK AO2 SLP157 T02220144 10222 20200 51016
PHKO 101653Z 09006KT 10SM SCT065 20/14 A2998 RMK AO2 SLP154 T02000144
PHKO 101553Z 08005KT 10SM FEW033 21/15 A2997 RMK AO2 SLP148 T02060150
PHKO 101453Z AUTO 09006KT 10SM CLR 21/16 A2995 RMK AO2 SLP142 T02060156 55000 TSNO
PHKO 101353Z AUTO 11005KT 10SM CLR 21/16 A2993 RMK AO2 SLP136 T02060161 TSNO
PHKO 101253Z AUTO 10004KT 10SM CLR 21/15 A2992 RMK AO2 SLP134 T02060150 TSNO
PHKO 101153Z AUTO 11007KT 10SM CLR 22/14 A2995 RMK AO2 SLP141 T02170144 10239 20217 58007 TSNO
PHKO 101053Z AUTO 13007KT 10SM CLR 22/15 A2996 RMK AO2 SLP147 T02170150 TSNO
PHKO 100953Z AUTO 11008KT 10SM CLR 22/15 A2997 RMK AO2 SLP150 T02220150 402780206 TSNO
PHKO 100853Z AUTO 11007KT 10SM CLR 22/16 A2997 RMK AO2 SLP149 T02220156 58003 TSNO
PHKO 100753Z 05005KT 10SM CLR 23/17 A2998 RMK AO2 SLP151 T02280167
PHKO 100653Z 35009KT 10SM CLR 24/17 A2998 RMK AO2 SLP154 T02390172
PHKO 100553Z 36008KT 10SM CLR 23/18 A2998 RMK AO2 SLP151 T02330178 10272 20233 51019
PHKO 100453Z 36010KT 10SM FEW060 24/18 A2996 RMK AO2 SLP144 T02440178
PHKO 100353Z 34007KT 10SM FEW060 25/18 A2995 RMK AO2 SLP142 T02500178
PHKO 100253Z 31011KT 10SM CLR 26/18 A2992 RMK AO2 SLP132 T02610178 55001
PHKO 100153Z 32008KT 10SM FEW060 27/17 A2991 RMK AO2 SLP128 T02670172
PHKO 100053Z 33010KT 10SM FEW055 27/17 A2990 RMK AO2 SLP126 T02670172
PHKO 092353Z 33010KT 10SM SCT070 27/18 A2992 RMK AO2 SLP133 T02720178 10278 20228 58020
PHKO 092253Z 30015KT 10SM CLR 27/18 A2995 RMK AO2 SLP142 T02720178
PHKO 092153Z COR 25006KT 10SM FEW045 26/17 A2996 RMK AO2 SLP145 T02610172
PHKO 092053Z COR 26007KT 10SM FEW045 26/17 A2998 RMK AO2 SLP154 T02560172 50001
PHKO 091953Z 25005KT 10SM CLR 25/17 A2999 RMK AO2 SLP156 T02500172
PHKO 091853Z 00000KT 10SM SCT090 25/17 A2999 RMK AO2 SLP157 T02500167
PHKO 091753Z 10004KT 10SM CLR 23/16 A2998 RMK AO2 SLP152 T02280156 10228 20206 53013
PHKO 091653Z 10004KT 10SM CLR 21/15 A2996 RMK AO2 SLP145 T02060150
PHKO 091553Z 11007KT 10SM CLR 21/16 A2994 RMK AO2 SLP139 T02110156
PHKO 091453Z AUTO 11007KT 10SM SCT030 OVC040 22/16 A2994 RMK AO2 SLP139 T02170161 55013 TSNO
PHKO 091353Z AUTO 11007KT 10SM CLR 21/16 A2994 RMK AO2 SLP138 T02110156 TSNO
PHKO 091253Z AUTO 13005KT 10SM SCT027 SCT035 BKN044 23/16 A2995 RMK AO2 SLP142 T02280161 TSNO